sensor_id;sensor_type;location;lat;lon;timestamp;pressure;altitude;pressure_sealevel;temperature;humidity
77118;BME280;66072;50.238;19.228;2023-04-15T00:01:11;97173.58;;;8.13;81.03
77118;BME280;66072;50.238;19.228;2023-04-15T00:03:39;97176.08;;;8.05;81.11
77118;BME280;66072;50.238;19.228;2023-04-15T00:06:07;97171.09;;;7.97;81.38
77118;BME280;66072;50.238;19.228;2023-04-15T00:08:35;97174.02;;;7.90;81.69
77118;BME280;66072;50.238;19.228;2023-04-15T00:11:02;97177.27;;;7.84;81.94
77118;BME280;66072;50.238;19.228;2023-04-15T00:13:33;97183.05;;;7.78;82.35
77118;BME280;66072;50.238;19.228;2023-04-15T00:16:00;97189.14;;;7.69;82.30
77118;BME280;66072;50.238;19.228;2023-04-15T00:18:28;97191.83;;;7.61;82.33
77118;BME280;66072;50.238;19.228;2023-04-15T00:20:56;97194.67;;;7.53;82.44
77118;BME280;66072;50.238;19.228;2023-04-15T00:23:24;97188.23;;;7.45;82.68
77118;BME280;66072;50.238;19.228;2023-04-15T00:25:52;97182.66;;;7.39;83.26
77118;BME280;66072;50.238;19.228;2023-04-15T00:28:19;97191.09;;;7.37;83.74
77118;BME280;66072;50.238;19.228;2023-04-15T00:30:47;97195.66;;;7.35;83.71
77118;BME280;66072;50.238;19.228;2023-04-15T00:33:14;97195.31;;;7.28;83.57
77118;BME280;66072;50.238;19.228;2023-04-15T00:35:42;97196.33;;;7.22;83.66
77118;BME280;66072;50.238;19.228;2023-04-15T00:38:10;97203.58;;;7.17;84.04
77118;BME280;66072;50.238;19.228;2023-04-15T00:40:37;97211.97;;;7.09;83.89
77118;BME280;66072;50.238;19.228;2023-04-15T00:43:05;97218.66;;;7.05;84.43
77118;BME280;66072;50.238;19.228;2023-04-15T00:45:33;97220.62;;;6.99;84.57
77118;BME280;66072;50.238;19.228;2023-04-15T00:48:01;97214.52;;;6.96;84.91
77118;BME280;66072;50.238;19.228;2023-04-15T00:50:28;97214.15;;;6.96;85.30
77118;BME280;66072;50.238;19.228;2023-04-15T00:52:56;97215.21;;;6.99;85.82
77118;BME280;66072;50.238;19.228;2023-04-15T00:55:23;97223.30;;;7.04;86.10
77118;BME280;66072;50.238;19.228;2023-04-15T00:57:51;97221.27;;;7.07;85.91
77118;BME280;66072;50.238;19.228;2023-04-15T01:00:19;97224.04;;;7.13;86.21
77118;BME280;66072;50.238;19.228;2023-04-15T01:02:47;97216.42;;;7.18;86.14
77118;BME280;66072;50.238;19.228;2023-04-15T01:05:15;97205.46;;;7.23;86.14
77118;BME280;66072;50.238;19.228;2023-04-15T01:07:43;97210.41;;;7.29;86.27
77118;BME280;66072;50.238;19.228;2023-04-15T01:10:11;97210.73;;;7.35;85.90
77118;BME280;66072;50.238;19.228;2023-04-15T01:12:39;97213.11;;;7.42;85.69
77118;BME280;66072;50.238;19.228;2023-04-15T01:15:07;97216.52;;;7.45;85.35
77118;BME280;66072;50.238;19.228;2023-04-15T01:17:35;97214.31;;;7.51;85.86
77118;BME280;66072;50.238;19.228;2023-04-15T01:20:03;97210.58;;;7.58;85.49
77118;BME280;66072;50.238;19.228;2023-04-15T01:22:32;97204.90;;;7.62;85.16
77118;BME280;66072;50.238;19.228;2023-04-15T01:25:05;97202.52;;;7.65;84.99
77118;BME280;66072;50.238;19.228;2023-04-15T01:27:33;97206.14;;;7.67;84.92
77118;BME280;66072;50.238;19.228;2023-04-15T01:30:02;97207.54;;;7.69;84.87
77118;BME280;66072;50.238;19.228;2023-04-15T01:32:29;97212.63;;;7.72;84.96
77118;BME280;66072;50.238;19.228;2023-04-15T01:34:57;97214.27;;;7.76;84.70
77118;BME280;66072;50.238;19.228;2023-04-15T01:37:24;97214.11;;;7.79;84.47
77118;BME280;66072;50.238;19.228;2023-04-15T01:39:52;97214.75;;;7.80;84.22
77118;BME280;66072;50.238;19.228;2023-04-15T01:42:20;97217.23;;;7.82;83.97
77118;BME280;66072;50.238;19.228;2023-04-15T01:44:48;97218.44;;;7.81;84.07
77118;BME280;66072;50.238;19.228;2023-04-15T01:47:15;97221.55;;;7.81;84.21
77118;BME280;66072;50.238;19.228;2023-04-15T01:49:43;97230.05;;;7.77;84.16
77118;BME280;66072;50.238;19.228;2023-04-15T01:52:10;97230.70;;;7.72;84.05
77118;BME280;66072;50.238;19.228;2023-04-15T01:54:38;97228.47;;;7.66;84.08
77118;BME280;66072;50.238;19.228;2023-04-15T01:57:05;97226.25;;;7.60;84.07
77118;BME280;66072;50.238;19.228;2023-04-15T01:59:33;97233.39;;;7.54;84.10
77118;BME280;66072;50.238;19.228;2023-04-15T02:02:00;97241.84;;;7.45;84.08
77118;BME280;66072;50.238;19.228;2023-04-15T02:04:28;97251.00;;;7.36;83.94
77118;BME280;66072;50.238;19.228;2023-04-15T02:06:56;97257.78;;;7.27;84.15
77118;BME280;66072;50.238;19.228;2023-04-15T02:09:23;97265.36;;;7.19;84.25
77118;BME280;66072;50.238;19.228;2023-04-15T02:11:51;97262.40;;;7.11;84.42
77118;BME280;66072;50.238;19.228;2023-04-15T02:14:19;97261.70;;;7.04;84.47
77118;BME280;66072;50.238;19.228;2023-04-15T02:16:46;97259.76;;;6.99;84.76
77118;BME280;66072;50.238;19.228;2023-04-15T02:19:14;97258.67;;;6.94;84.84
77118;BME280;66072;50.238;19.228;2023-04-15T02:21:41;97259.58;;;6.89;84.92
77118;BME280;66072;50.238;19.228;2023-04-15T02:24:09;97265.22;;;6.85;85.26
77118;BME280;66072;50.238;19.228;2023-04-15T02:26:37;97263.00;;;6.82;85.70
77118;BME280;66072;50.238;19.228;2023-04-15T02:29:04;97260.31;;;6.82;85.93
77118;BME280;66072;50.238;19.228;2023-04-15T02:31:32;97260.70;;;6.81;85.83
77118;BME280;66072;50.238;19.228;2023-04-15T02:34:00;97260.45;;;6.79;85.98
77118;BME280;66072;50.238;19.228;2023-04-15T02:36:27;97262.98;;;6.76;85.85
77118;BME280;66072;50.238;19.228;2023-04-15T02:38:55;97269.66;;;6.71;85.86
77118;BME280;66072;50.238;19.228;2023-04-15T02:41:22;97271.45;;;6.66;85.96
77118;BME280;66072;50.238;19.228;2023-04-15T02:43:50;97274.77;;;6.61;86.09
77118;BME280;66072;50.238;19.228;2023-04-15T02:46:17;97276.38;;;6.56;86.34
77118;BME280;66072;50.238;19.228;2023-04-15T02:48:45;97279.30;;;6.49;86.18
77118;BME280;66072;50.238;19.228;2023-04-15T02:51:13;97278.14;;;6.41;86.04
77118;BME280;66072;50.238;19.228;2023-04-15T02:53:41;97279.72;;;6.33;86.18
77118;BME280;66072;50.238;19.228;2023-04-15T02:56:09;97283.84;;;6.25;86.15
77118;BME280;66072;50.238;19.228;2023-04-15T02:58:37;97282.55;;;6.16;86.23
77118;BME280;66072;50.238;19.228;2023-04-15T03:04:45;97285.79;;;5.91;86.47
77118;BME280;66072;50.238;19.228;2023-04-15T03:07:13;97283.67;;;5.81;86.43
77118;BME280;66072;50.238;19.228;2023-04-15T03:09:40;97286.90;;;5.74;86.72
77118;BME280;66072;50.238;19.228;2023-04-15T03:12:08;97290.60;;;5.67;86.87
77118;BME280;66072;50.238;19.228;2023-04-15T03:14:35;97292.84;;;5.62;87.05
77118;BME280;66072;50.238;19.228;2023-04-15T03:17:03;97297.09;;;5.58;87.22
77118;BME280;66072;50.238;19.228;2023-04-15T03:19:31;97293.77;;;5.57;87.40
77118;BME280;66072;50.238;19.228;2023-04-15T03:21:58;97292.45;;;5.56;87.71
77118;BME280;66072;50.238;19.228;2023-04-15T03:24:26;97292.52;;;5.55;87.79
77118;BME280;66072;50.238;19.228;2023-04-15T03:26:53;97291.21;;;5.54;87.94
77118;BME280;66072;50.238;19.228;2023-04-15T03:29:21;97301.36;;;5.50;88.00
77118;BME280;66072;50.238;19.228;2023-04-15T03:31:49;97308.54;;;5.46;87.86
77118;BME280;66072;50.238;19.228;2023-04-15T03:34:16;97312.07;;;5.39;87.89
77118;BME280;66072;50.238;19.228;2023-04-15T03:36:45;97314.47;;;5.30;87.83
77118;BME280;66072;50.238;19.228;2023-04-15T03:39:12;97322.35;;;5.21;87.67
77118;BME280;66072;50.238;19.228;2023-04-15T03:41:40;97326.92;;;5.09;87.63
77118;BME280;66072;50.238;19.228;2023-04-15T03:44:08;97329.89;;;4.99;87.72
77118;BME280;66072;50.238;19.228;2023-04-15T03:46:35;97331.73;;;4.92;88.09
77118;BME280;66072;50.238;19.228;2023-04-15T03:49:05;97340.48;;;4.85;88.32
77118;BME280;66072;50.238;19.228;2023-04-15T03:51:33;97342.79;;;4.78;88.50
77118;BME280;66072;50.238;19.228;2023-04-15T03:54:00;97345.23;;;4.72;88.42
77118;BME280;66072;50.238;19.228;2023-04-15T03:56:28;97351.33;;;4.69;88.70
77118;BME280;66072;50.238;19.228;2023-04-15T03:58:55;97353.24;;;4.63;88.67
77118;BME280;66072;50.238;19.228;2023-04-15T04:01:23;97353.43;;;4.58;88.70
77118;BME280;66072;50.238;19.228;2023-04-15T04:03:51;97351.83;;;4.51;88.56
77118;BME280;66072;50.238;19.228;2023-04-15T04:06:19;97353.23;;;4.46;88.59
77118;BME280;66072;50.238;19.228;2023-04-15T04:08:46;97352.43;;;4.41;88.62
77118;BME280;66072;50.238;19.228;2023-04-15T04:11:14;97350.88;;;4.38;88.83
77118;BME280;66072;50.238;19.228;2023-04-15T04:13:41;97347.73;;;4.36;89.01
77118;BME280;66072;50.238;19.228;2023-04-15T04:16:09;97355.16;;;4.36;89.27
77118;BME280;66072;50.238;19.228;2023-04-15T04:18:36;97360.09;;;4.40;89.60
77118;BME280;66072;50.238;19.228;2023-04-15T04:21:04;97363.05;;;4.42;89.59
77118;BME280;66072;50.238;19.228;2023-04-15T04:23:32;97364.73;;;4.43;89.38
77118;BME280;66072;50.238;19.228;2023-04-15T04:25:59;97363.27;;;4.45;89.49
77118;BME280;66072;50.238;19.228;2023-04-15T04:28:27;97376.42;;;4.50;89.78
77118;BME280;66072;50.238;19.228;2023-04-15T04:30:55;97379.98;;;4.59;89.87
77118;BME280;66072;50.238;19.228;2023-04-15T04:33:22;97383.13;;;4.69;90.00
77118;BME280;66072;50.238;19.228;2023-04-15T04:35:50;97384.65;;;4.77;89.92
77118;BME280;66072;50.238;19.228;2023-04-15T04:38:17;97385.64;;;4.86;89.64
77118;BME280;66072;50.238;19.228;2023-04-15T04:40:45;97383.30;;;4.94;89.64
77118;BME280;66072;50.238;19.228;2023-04-15T04:43:13;97382.84;;;5.01;89.51
77118;BME280;66072;50.238;19.228;2023-04-15T04:45:40;97379.48;;;5.08;89.42
77118;BME280;66072;50.238;19.228;2023-04-15T04:48:08;97378.89;;;5.14;89.22
77118;BME280;66072;50.238;19.228;2023-04-15T04:50:35;97385.11;;;5.24;89.08
77118;BME280;66072;50.238;19.228;2023-04-15T04:53:03;97388.05;;;5.34;88.93
77118;BME280;66072;50.238;19.228;2023-04-15T04:55:31;97389.02;;;5.47;89.03
77118;BME280;66072;50.238;19.228;2023-04-15T04:57:58;97388.61;;;5.60;88.84
77118;BME280;66072;50.238;19.228;2023-04-15T05:00:26;97385.29;;;5.70;88.44
77118;BME280;66072;50.238;19.228;2023-04-15T05:02:54;97387.73;;;5.80;88.51
77118;BME280;66072;50.238;19.228;2023-04-15T05:05:22;97384.37;;;5.91;88.50
77118;BME280;66072;50.238;19.228;2023-04-15T05:07:49;97387.30;;;6.05;88.38
77118;BME280;66072;50.238;19.228;2023-04-15T05:10:17;97389.64;;;6.21;88.07
77118;BME280;66072;50.238;19.228;2023-04-15T05:12:44;97382.74;;;6.34;87.91
77118;BME280;66072;50.238;19.228;2023-04-15T05:15:12;97384.11;;;6.45;87.71
77118;BME280;66072;50.238;19.228;2023-04-15T05:17:40;97384.34;;;6.54;87.43
77118;BME280;66072;50.238;19.228;2023-04-15T05:20:07;97388.95;;;6.64;87.28
77118;BME280;66072;50.238;19.228;2023-04-15T05:22:35;97390.65;;;6.75;86.98
77118;BME280;66072;50.238;19.228;2023-04-15T05:25:03;97392.31;;;6.86;86.86
77118;BME280;66072;50.238;19.228;2023-04-15T05:27:31;97391.02;;;6.98;86.52
77118;BME280;66072;50.238;19.228;2023-04-15T05:29:58;97394.86;;;7.14;86.20
77118;BME280;66072;50.238;19.228;2023-04-15T05:32:26;97398.27;;;7.30;85.88
77118;BME280;66072;50.238;19.228;2023-04-15T05:34:54;97402.48;;;7.47;85.48
77118;BME280;66072;50.238;19.228;2023-04-15T05:37:21;97407.22;;;7.65;85.06
77118;BME280;66072;50.238;19.228;2023-04-15T05:39:49;97405.14;;;7.82;84.85
77118;BME280;66072;50.238;19.228;2023-04-15T05:42:16;97406.88;;;7.97;84.29
77118;BME280;66072;50.238;19.228;2023-04-15T05:44:44;97405.59;;;8.12;83.79
77118;BME280;66072;50.238;19.228;2023-04-15T05:47:11;97407.46;;;8.28;83.46
77118;BME280;66072;50.238;19.228;2023-04-15T05:49:39;97406.83;;;8.46;82.78
77118;BME280;66072;50.238;19.228;2023-04-15T05:52:06;97412.92;;;8.66;81.78
77118;BME280;66072;50.238;19.228;2023-04-15T05:54:34;97419.86;;;8.85;80.85
77118;BME280;66072;50.238;19.228;2023-04-15T05:57:02;97421.80;;;8.98;79.71
77118;BME280;66072;50.238;19.228;2023-04-15T05:59:29;97426.14;;;9.12;78.93
77118;BME280;66072;50.238;19.228;2023-04-15T06:01:57;97429.23;;;9.23;78.31
77118;BME280;66072;50.238;19.228;2023-04-15T06:04:24;97429.05;;;9.35;77.55
77118;BME280;66072;50.238;19.228;2023-04-15T06:06:52;97434.63;;;9.48;76.71
77118;BME280;66072;50.238;19.228;2023-04-15T06:09:20;97433.54;;;9.63;76.58
77118;BME280;66072;50.238;19.228;2023-04-15T06:11:47;97430.86;;;9.82;75.84
77118;BME280;66072;50.238;19.228;2023-04-15T06:14:15;97430.17;;;10.05;75.53
77118;BME280;66072;50.238;19.228;2023-04-15T06:16:42;97434.15;;;10.28;74.20
77118;BME280;66072;50.238;19.228;2023-04-15T06:19:10;97438.28;;;10.43;73.15
77118;BME280;66072;50.238;19.228;2023-04-15T06:21:38;97443.14;;;10.56;73.27
77118;BME280;66072;50.238;19.228;2023-04-15T06:24:05;97445.70;;;10.62;70.27
77118;BME280;66072;50.238;19.228;2023-04-15T06:26:33;97446.06;;;10.58;70.96
77118;BME280;66072;50.238;19.228;2023-04-15T06:29:00;97445.48;;;10.59;71.47
77118;BME280;66072;50.238;19.228;2023-04-15T06:31:29;97446.18;;;10.59;71.31
77118;BME280;66072;50.238;19.228;2023-04-15T06:33:56;97444.84;;;10.61;71.29
77118;BME280;66072;50.238;19.228;2023-04-15T06:36:24;97445.59;;;10.63;70.90
77118;BME280;66072;50.238;19.228;2023-04-15T06:38:51;97439.98;;;10.63;68.89
77118;BME280;66072;50.238;19.228;2023-04-15T06:41:19;97440.46;;;10.58;68.14
77118;BME280;66072;50.238;19.228;2023-04-15T06:43:46;97445.98;;;10.60;68.77
77118;BME280;66072;50.238;19.228;2023-04-15T06:46:14;97445.84;;;10.67;68.11
77118;BME280;66072;50.238;19.228;2023-04-15T06:48:42;97450.06;;;10.73;68.34
77118;BME280;66072;50.238;19.228;2023-04-15T06:51:09;97454.52;;;10.82;68.83
77118;BME280;66072;50.238;19.228;2023-04-15T06:53:37;97457.02;;;10.85;68.77
77118;BME280;66072;50.238;19.228;2023-04-15T06:56:06;97463.82;;;10.83;65.73
77118;BME280;66072;50.238;19.228;2023-04-15T06:58:34;97468.08;;;10.70;65.06
77118;BME280;66072;50.238;19.228;2023-04-15T07:01:01;97460.88;;;10.67;64.94
77118;BME280;66072;50.238;19.228;2023-04-15T07:03:29;97459.69;;;10.75;65.47
77118;BME280;66072;50.238;19.228;2023-04-15T07:05:59;97462.48;;;10.91;64.92
77118;BME280;66072;50.238;19.228;2023-04-15T07:08:26;97468.21;;;11.05;64.29
77118;BME280;66072;50.238;19.228;2023-04-15T07:10:54;97469.05;;;11.24;64.20
77118;BME280;66072;50.238;19.228;2023-04-15T07:13:21;97476.02;;;11.46;62.41
77118;BME280;66072;50.238;19.228;2023-04-15T07:15:49;97481.39;;;11.63;62.43
77118;BME280;66072;50.238;19.228;2023-04-15T07:18:17;97483.98;;;11.78;61.47
77118;BME280;66072;50.238;19.228;2023-04-15T07:20:44;97484.84;;;11.89;62.47
77118;BME280;66072;50.238;19.228;2023-04-15T07:23:12;97485.65;;;12.02;62.61
77118;BME280;66072;50.238;19.228;2023-04-15T07:25:39;97491.13;;;12.09;61.33
77118;BME280;66072;50.238;19.228;2023-04-15T07:28:07;97490.17;;;12.11;62.03
77118;BME280;66072;50.238;19.228;2023-04-15T07:30:34;97489.91;;;12.15;60.95
77118;BME280;66072;50.238;19.228;2023-04-15T07:33:02;97493.73;;;12.14;59.85
77118;BME280;66072;50.238;19.228;2023-04-15T07:35:30;97495.67;;;12.20;60.15
77118;BME280;66072;50.238;19.228;2023-04-15T07:37:57;97494.16;;;12.32;59.91
77118;BME280;66072;50.238;19.228;2023-04-15T07:40:25;97491.02;;;12.46;59.63
77118;BME280;66072;50.238;19.228;2023-04-15T07:42:53;97490.52;;;12.55;58.01
77118;BME280;66072;50.238;19.228;2023-04-15T07:45:20;97481.67;;;12.59;57.81
77118;BME280;66072;50.238;19.228;2023-04-15T07:47:48;97480.34;;;12.66;58.34
77118;BME280;66072;50.238;19.228;2023-04-15T07:50:16;97478.38;;;12.69;57.20
77118;BME280;66072;50.238;19.228;2023-04-15T07:52:43;97481.05;;;12.60;54.95
77118;BME280;66072;50.238;19.228;2023-04-15T07:55:12;97484.28;;;12.49;55.86
77118;BME280;66072;50.238;19.228;2023-04-15T07:57:39;97480.95;;;12.45;56.22
77118;BME280;66072;50.238;19.228;2023-04-15T08:00:07;97483.77;;;12.47;57.09
77118;BME280;66072;50.238;19.228;2023-04-15T08:02:35;97484.33;;;12.51;56.80
77118;BME280;66072;50.238;19.228;2023-04-15T08:05:06;97485.75;;;12.62;56.06
77118;BME280;66072;50.238;19.228;2023-04-15T08:07:36;97485.24;;;12.81;55.10
77118;BME280;66072;50.238;19.228;2023-04-15T08:10:04;97482.56;;;12.97;52.64
77118;BME280;66072;50.238;19.228;2023-04-15T08:12:32;97487.70;;;13.11;53.07
77118;BME280;66072;50.238;19.228;2023-04-15T08:14:59;97485.48;;;13.31;53.82
77118;BME280;66072;50.238;19.228;2023-04-15T08:17:27;97483.05;;;13.54;53.60
77118;BME280;66072;50.238;19.228;2023-04-15T08:19:54;97483.88;;;13.86;53.72
77118;BME280;66072;50.238;19.228;2023-04-15T08:22:22;97488.80;;;14.21;53.52
77118;BME280;66072;50.238;19.228;2023-04-15T08:24:50;97483.20;;;14.56;52.89
77118;BME280;66072;50.238;19.228;2023-04-15T08:27:17;97487.46;;;14.85;49.98
77118;BME280;66072;50.238;19.228;2023-04-15T08:29:45;97482.73;;;14.99;48.85
77118;BME280;66072;50.238;19.228;2023-04-15T08:32:13;97482.58;;;15.10;47.31
77118;BME280;66072;50.238;19.228;2023-04-15T08:34:40;97484.16;;;15.17;47.06
77118;BME280;66072;50.238;19.228;2023-04-15T08:37:08;97486.55;;;15.49;48.28
77118;BME280;66072;50.238;19.228;2023-04-15T08:39:37;97486.71;;;15.87;46.51
77118;BME280;66072;50.238;19.228;2023-04-15T08:42:10;97487.61;;;16.15;47.22
77118;BME280;66072;50.238;19.228;2023-04-15T08:44:39;97493.02;;;16.41;45.41
77118;BME280;66072;50.238;19.228;2023-04-15T08:47:07;97490.89;;;16.50;44.39
77118;BME280;66072;50.238;19.228;2023-04-15T08:49:38;97489.69;;;16.51;42.25
77118;BME280;66072;50.238;19.228;2023-04-15T08:52:07;97488.89;;;16.39;43.19
77118;BME280;66072;50.238;19.228;2023-04-15T08:54:36;97491.03;;;16.44;43.70
77118;BME280;66072;50.238;19.228;2023-04-15T08:57:04;97491.42;;;16.52;42.77
77118;BME280;66072;50.238;19.228;2023-04-15T08:59:32;97494.67;;;16.60;42.61
77118;BME280;66072;50.238;19.228;2023-04-15T09:02:01;97495.68;;;16.74;43.53
77118;BME280;66072;50.238;19.228;2023-04-15T09:04:29;97493.93;;;16.95;41.23
77118;BME280;66072;50.238;19.228;2023-04-15T09:06:56;97495.41;;;17.05;42.17
77118;BME280;66072;50.238;19.228;2023-04-15T09:09:24;97492.40;;;17.39;42.45
77118;BME280;66072;50.238;19.228;2023-04-15T09:11:51;97494.27;;;17.81;40.32
77118;BME280;66072;50.238;19.228;2023-04-15T09:14:19;97493.98;;;18.16;41.26
77118;BME280;66072;50.238;19.228;2023-04-15T09:19:24;97491.55;;;18.14;36.56
77118;BME280;66072;50.238;19.228;2023-04-15T09:21:56;97487.54;;;17.92;38.33
77118;BME280;66072;50.238;19.228;2023-04-15T09:24:35;97488.70;;;17.89;39.26
77118;BME280;66072;50.238;19.228;2023-04-15T09:27:03;97487.98;;;18.02;39.97
77118;BME280;66072;50.238;19.228;2023-04-15T09:29:30;97492.63;;;18.10;39.56
77118;BME280;66072;50.238;19.228;2023-04-15T09:32:12;97493.21;;;18.34;40.41
77118;BME280;66072;50.238;19.228;2023-04-15T09:34:40;97485.55;;;18.82;39.45
77118;BME280;66072;50.238;19.228;2023-04-15T09:37:07;97490.19;;;19.12;39.69
77118;BME280;66072;50.238;19.228;2023-04-15T09:39:45;97491.08;;;19.23;39.72
77118;BME280;66072;50.238;19.228;2023-04-15T09:42:13;97490.55;;;19.23;40.02
77118;BME280;66072;50.238;19.228;2023-04-15T09:44:40;97490.61;;;19.44;39.78
77118;BME280;66072;50.238;19.228;2023-04-15T09:47:08;97490.67;;;19.55;39.03
77118;BME280;66072;50.238;19.228;2023-04-15T09:49:36;97491.02;;;19.45;39.24
77118;BME280;66072;50.238;19.228;2023-04-15T09:52:03;97491.29;;;19.29;39.47
77118;BME280;66072;50.238;19.228;2023-04-15T09:54:37;97490.82;;;19.06;39.49
77118;BME280;66072;50.238;19.228;2023-04-15T09:57:06;97489.81;;;18.79;40.08
77118;BME280;66072;50.238;19.228;2023-04-15T09:59:34;97493.43;;;18.66;40.59
77118;BME280;66072;50.238;19.228;2023-04-15T10:02:05;97497.23;;;18.48;40.77
77118;BME280;66072;50.238;19.228;2023-04-15T10:04:39;97496.39;;;18.49;40.65
77118;BME280;66072;50.238;19.228;2023-04-15T10:07:11;97493.96;;;18.90;38.95
77118;BME280;66072;50.238;19.228;2023-04-15T10:09:39;97494.73;;;19.41;38.73
77118;BME280;66072;50.238;19.228;2023-04-15T10:12:07;97500.79;;;19.64;38.95
77118;BME280;66072;50.238;19.228;2023-04-15T10:14:37;97493.92;;;19.89;38.82
77118;BME280;66072;50.238;19.228;2023-04-15T10:17:06;97498.04;;;19.90;37.58
77118;BME280;66072;50.238;19.228;2023-04-15T10:19:36;97495.30;;;19.82;38.48
77118;BME280;66072;50.238;19.228;2023-04-15T10:22:04;97493.16;;;19.92;38.90
77118;BME280;66072;50.238;19.228;2023-04-15T10:24:32;97496.35;;;19.91;38.13
77118;BME280;66072;50.238;19.228;2023-04-15T10:27:02;97499.98;;;19.79;37.63
77118;BME280;66072;50.238;19.228;2023-04-15T10:29:30;97498.89;;;20.04;37.51
77118;BME280;66072;50.238;19.228;2023-04-15T10:31:58;97504.02;;;20.30;37.21
77118;BME280;66072;50.238;19.228;2023-04-15T10:34:26;97501.20;;;20.46;36.41
77118;BME280;66072;50.238;19.228;2023-04-15T10:36:55;97495.09;;;20.29;36.24
77118;BME280;66072;50.238;19.228;2023-04-15T10:42:18;97496.91;;;19.84;36.23
77118;BME280;66072;50.238;19.228;2023-04-15T10:44:50;97501.08;;;19.72;36.24
77118;BME280;66072;50.238;19.228;2023-04-15T10:47:19;97501.13;;;19.62;35.86
77118;BME280;66072;50.238;19.228;2023-04-15T10:49:56;97501.77;;;19.57;36.44
77118;BME280;66072;50.238;19.228;2023-04-15T10:52:26;97500.50;;;19.54;36.15
77118;BME280;66072;50.238;19.228;2023-04-15T10:55:15;97498.23;;;19.62;37.06
77118;BME280;66072;50.238;19.228;2023-04-15T10:57:45;97497.83;;;19.64;37.24
77118;BME280;66072;50.238;19.228;2023-04-15T11:00:14;97502.05;;;19.49;36.87
77118;BME280;66072;50.238;19.228;2023-04-15T11:08:10;97498.71;;;19.43;37.71
77118;BME280;66072;50.238;19.228;2023-04-15T11:18:17;97500.29;;;20.69;36.21
77118;BME280;66072;50.238;19.228;2023-04-15T11:20:57;97504.35;;;20.78;36.02
77118;BME280;66072;50.238;19.228;2023-04-15T11:26:00;97505.61;;;20.86;36.41
77118;BME280;66072;50.238;19.228;2023-04-15T11:28:29;97506.02;;;20.85;35.70
77118;BME280;66072;50.238;19.228;2023-04-15T11:31:02;97509.52;;;20.73;35.69
77118;BME280;66072;50.238;19.228;2023-04-15T11:33:31;97512.85;;;20.56;36.05
77118;BME280;66072;50.238;19.228;2023-04-15T11:36:00;97508.01;;;20.28;36.55
77118;BME280;66072;50.238;19.228;2023-04-15T11:38:27;97505.05;;;19.84;36.50
77118;BME280;66072;50.238;19.228;2023-04-15T11:40:55;97511.54;;;19.44;37.34
77118;BME280;66072;50.238;19.228;2023-04-15T11:43:23;97510.00;;;19.43;37.57
77118;BME280;66072;50.238;19.228;2023-04-15T11:45:58;97511.63;;;19.38;37.19
77118;BME280;66072;50.238;19.228;2023-04-15T11:48:28;97511.40;;;19.14;37.18
77118;BME280;66072;50.238;19.228;2023-04-15T11:51:01;97512.58;;;18.86;38.07
77118;BME280;66072;50.238;19.228;2023-04-15T11:53:55;97513.69;;;18.61;38.11
77118;BME280;66072;50.238;19.228;2023-04-15T11:56:24;97513.73;;;18.42;38.42
77118;BME280;66072;50.238;19.228;2023-04-15T11:58:55;97515.57;;;18.32;38.38
77118;BME280;66072;50.238;19.228;2023-04-15T12:01:34;97519.90;;;18.13;38.69
77118;BME280;66072;50.238;19.228;2023-04-15T12:04:10;97517.16;;;17.94;39.05
77118;BME280;66072;50.238;19.228;2023-04-15T12:06:38;97520.67;;;17.91;39.26
77118;BME280;66072;50.238;19.228;2023-04-15T12:11:43;97521.27;;;19.01;38.64
77118;BME280;66072;50.238;19.228;2023-04-15T12:14:12;97522.03;;;21.01;35.58
77118;BME280;66072;50.238;19.228;2023-04-15T12:16:45;97524.97;;;23.01;34.20
77118;BME280;66072;50.238;19.228;2023-04-15T12:19:23;97522.68;;;25.41;32.15
77118;BME280;66072;50.238;19.228;2023-04-15T12:21:53;97522.41;;;25.90;30.33
77118;BME280;66072;50.238;19.228;2023-04-15T12:24:26;97523.48;;;25.64;29.55
77118;BME280;66072;50.238;19.228;2023-04-15T12:27:00;97524.29;;;25.36;29.46
77118;BME280;66072;50.238;19.228;2023-04-15T12:29:29;97521.02;;;26.09;28.77
77118;BME280;66072;50.238;19.228;2023-04-15T12:32:03;97522.58;;;28.82;27.00
77118;BME280;66072;50.238;19.228;2023-04-15T12:34:35;97522.02;;;29.32;26.43
77118;BME280;66072;50.238;19.228;2023-04-15T12:37:05;97521.27;;;29.18;26.25
77118;BME280;66072;50.238;19.228;2023-04-15T12:39:38;97523.40;;;28.40;25.35
77118;BME280;66072;50.238;19.228;2023-04-15T12:42:07;97517.20;;;27.36;24.77
77118;BME280;66072;50.238;19.228;2023-04-15T12:44:35;97516.88;;;26.42;26.10
77118;BME280;66072;50.238;19.228;2023-04-15T12:47:03;97516.44;;;26.09;26.22
77118;BME280;66072;50.238;19.228;2023-04-15T12:49:31;97514.13;;;25.56;26.29
77118;BME280;66072;50.238;19.228;2023-04-15T12:52:00;97520.14;;;24.79;26.90
77118;BME280;66072;50.238;19.228;2023-04-15T12:54:29;97516.40;;;24.05;28.01
77118;BME280;66072;50.238;19.228;2023-04-15T12:56:58;97515.75;;;23.53;28.98
77118;BME280;66072;50.238;19.228;2023-04-15T12:59:27;97518.77;;;23.27;29.34
77118;BME280;66072;50.238;19.228;2023-04-15T13:01:54;97515.17;;;23.16;29.12
77118;BME280;66072;50.238;19.228;2023-04-15T13:04:22;97514.54;;;25.32;27.42
77118;BME280;66072;50.238;19.228;2023-04-15T13:06:50;97514.49;;;28.22;25.20
77118;BME280;66072;50.238;19.228;2023-04-15T13:09:18;97513.77;;;30.99;22.77
77118;BME280;66072;50.238;19.228;2023-04-15T13:11:45;97522.81;;;33.30;19.95
77118;BME280;66072;50.238;19.228;2023-04-15T13:14:13;97520.18;;;35.21;18.20
77118;BME280;66072;50.238;19.228;2023-04-15T13:16:40;97518.17;;;36.86;17.10
77118;BME280;66072;50.238;19.228;2023-04-15T13:19:08;97516.72;;;38.04;16.34
77118;BME280;66072;50.238;19.228;2023-04-15T13:21:36;97514.86;;;39.26;15.58
77118;BME280;66072;50.238;19.228;2023-04-15T13:24:03;97516.48;;;40.20;14.67
77118;BME280;66072;50.238;19.228;2023-04-15T13:26:31;97515.76;;;40.92;14.24
77118;BME280;66072;50.238;19.228;2023-04-15T13:28:59;97516.77;;;41.52;13.39